createdAt,value
2022-09-28T00:00:43.190Z,37
2022-09-28T00:02:00.418Z,40
2022-09-28T00:03:17.238Z,41
2022-09-28T00:04:34.186Z,46
2022-09-28T00:05:51.114Z,48
2022-09-28T00:07:08.144Z,51
2022-09-28T00:08:25.193Z,52
2022-09-28T00:09:42.137Z,56
2022-09-28T00:10:59.161Z,59
2022-09-28T00:12:16.219Z,60
2022-09-28T00:13:33.152Z,58
2022-09-28T00:14:50.117Z,55
2022-09-28T00:16:07.236Z,55
2022-09-28T00:17:24.170Z,54
2022-09-28T00:18:41.131Z,52
2022-09-28T00:19:58.157Z,49
2022-09-28T00:21:15.125Z,46
2022-09-28T00:22:32.143Z,46
2022-09-28T00:23:49.133Z,46
2022-09-28T00:25:06.173Z,46
2022-09-28T00:26:23.142Z,46
2022-09-28T00:27:40.137Z,46
2022-09-28T00:28:57.216Z,46
2022-09-28T00:30:14.153Z,48
2022-09-28T00:31:31.315Z,48
2022-09-28T00:32:48.158Z,46
2022-09-28T00:34:05.154Z,46
2022-09-28T00:35:22.218Z,46
2022-09-28T00:36:39.179Z,44
2022-09-28T00:37:56.151Z,43
2022-09-28T00:39:13.174Z,43
2022-09-28T00:40:30.325Z,41
2022-09-28T00:41:47.199Z,42
2022-09-28T00:43:04.201Z,42
2022-09-28T00:44:21.193Z,41
2022-09-28T00:45:38.241Z,40
2022-09-28T00:46:55.200Z,40
2022-09-28T00:48:12.195Z,41
2022-09-28T00:49:29.172Z,39
2022-09-28T00:50:46.170Z,39
2022-09-28T00:52:03.195Z,37
2022-09-28T00:53:20.243Z,36
2022-09-28T00:54:37.180Z,36
2022-09-28T00:55:54.191Z,36
2022-09-28T00:57:11.181Z,36
2022-09-28T00:58:28.266Z,35
2022-09-28T00:59:45.208Z,35
2022-09-28T01:01:02.292Z,34
2022-09-28T01:02:19.272Z,32
2022-09-28T01:03:36.693Z,33
2022-09-28T01:04:53.210Z,33
2022-09-28T01:06:10.188Z,36
2022-09-28T01:07:27.216Z,37
2022-09-28T01:08:44.230Z,40
2022-09-28T01:10:01.299Z,43
2022-09-28T01:11:18.294Z,45
2022-09-28T01:12:35.214Z,47
2022-09-28T01:13:52.240Z,49
2022-09-28T01:15:09.259Z,49
2022-09-28T01:16:26.262Z,52
2022-09-28T01:17:43.582Z,52
2022-09-28T01:19:00.220Z,50
2022-09-28T01:20:17.255Z,50
2022-09-28T01:21:34.208Z,48
2022-09-28T01:22:51.254Z,49
2022-09-28T01:24:08.229Z,49
2022-09-28T01:25:25.224Z,46
2022-09-28T01:26:42.242Z,46
2022-09-28T01:27:59.274Z,46
2022-09-28T01:29:16.380Z,44
2022-09-28T01:30:33.256Z,44
2022-09-28T01:31:50.337Z,42
2022-09-28T01:33:07.241Z,40
2022-09-28T01:34:24.244Z,40
2022-09-28T01:35:42.222Z,40
2022-09-28T01:36:59.235Z,37
2022-09-28T01:38:16.237Z,37
2022-09-28T01:39:33.247Z,36
2022-09-28T01:40:50.420Z,35
2022-09-28T01:42:07.279Z,36
2022-09-28T01:43:24.267Z,37
2022-09-28T01:44:41.277Z,37
2022-09-28T01:45:58.405Z,39
2022-09-28T01:47:15.299Z,37
2022-09-28T01:48:32.332Z,37
2022-09-28T01:49:49.267Z,37
2022-09-28T01:51:06.245Z,36
2022-09-28T01:52:23.313Z,36
2022-09-28T01:53:40.803Z,37
2022-09-28T01:54:58.259Z,39
2022-09-28T01:56:15.276Z,37
2022-09-28T01:57:32.288Z,40
2022-09-28T01:58:49.326Z,42
2022-09-28T02:00:06.429Z,42
2022-09-28T02:01:23.296Z,42
2022-09-28T02:02:40.271Z,41
2022-09-28T02:03:57.294Z,40
2022-09-28T02:05:14.307Z,40
2022-09-28T02:06:31.269Z,41
2022-09-28T02:07:48.292Z,41
2022-09-28T02:09:05.354Z,41
2022-09-28T02:10:22.300Z,41
2022-09-28T02:11:39.296Z,39
2022-09-28T02:12:56.290Z,40
2022-09-28T02:14:13.335Z,43
2022-09-28T02:15:30.371Z,43
2022-09-28T02:16:47.370Z,44
2022-09-28T02:18:04.313Z,44
2022-09-28T02:19:22.376Z,46
2022-09-28T02:20:39.337Z,44
2022-09-28T02:21:56.350Z,44
2022-09-28T02:23:13.311Z,44
2022-09-28T02:24:30.308Z,47
2022-09-28T02:25:47.331Z,48
2022-09-28T02:27:04.310Z,52
2022-09-28T02:28:21.346Z,52
2022-09-28T02:29:38.355Z,55
2022-09-28T02:30:55.350Z,55
2022-09-28T02:32:12.399Z,56
2022-09-28T02:33:29.332Z,56
2022-09-28T02:34:46.351Z,54
2022-09-28T02:36:03.411Z,55
2022-09-28T02:37:20.330Z,57
2022-09-28T02:38:37.340Z,56
2022-09-28T02:39:54.350Z,56
2022-09-28T02:41:11.360Z,54
2022-09-28T02:42:28.339Z,54
2022-09-28T02:43:45.329Z,54
2022-09-28T02:45:02.383Z,52
2022-09-28T02:46:19.437Z,52
2022-09-28T02:47:36.440Z,52
2022-09-28T02:49:05.146Z,51
2022-09-28T02:50:10.350Z,51
2022-09-28T02:51:27.403Z,50
2022-09-28T02:52:44.345Z,50
2022-09-28T02:54:01.400Z,48
2022-09-28T02:55:18.356Z,46
2022-09-28T02:56:35.538Z,43
2022-09-28T02:57:52.355Z,41
2022-09-28T02:59:09.384Z,41
2022-09-28T03:00:26.404Z,41
2022-09-28T03:01:43.414Z,43
2022-09-28T03:03:00.427Z,43
2022-09-28T03:04:17.376Z,43
2022-09-28T03:05:34.386Z,41
2022-09-28T03:06:51.396Z,42
2022-09-28T03:08:08.367Z,42
2022-09-28T03:09:25.370Z,43
2022-09-28T03:10:42.385Z,44
2022-09-28T03:11:59.404Z,43
2022-09-28T03:13:16.486Z,44
2022-09-28T03:14:33.438Z,42
2022-09-28T03:15:50.389Z,43
2022-09-28T03:17:07.379Z,44
2022-09-28T03:18:24.433Z,43
2022-09-28T03:19:41.403Z,46
2022-09-28T03:20:58.387Z,47
2022-09-28T03:22:15.392Z,48
2022-09-28T03:23:32.419Z,48
2022-09-28T03:24:49.398Z,50
2022-09-28T03:26:06.394Z,51
2022-09-28T03:27:23.453Z,54
2022-09-28T03:28:40.422Z,56
2022-09-28T03:29:57.395Z,59
2022-09-28T03:31:14.484Z,60
2022-09-28T03:32:31.565Z,62
2022-09-28T03:33:48.470Z,59
2022-09-28T03:35:05.407Z,58
2022-09-28T03:36:22.411Z,52
2022-09-28T03:37:39.485Z,50
2022-09-28T03:38:56.424Z,48
2022-09-28T03:40:13.405Z,48
2022-09-28T03:41:30.443Z,49
2022-09-28T03:42:47.482Z,48
2022-09-28T03:44:04.418Z,48
2022-09-28T03:45:21.473Z,47
2022-09-28T03:46:38.445Z,47
2022-09-28T03:47:55.460Z,46
2022-09-28T03:49:12.484Z,42
2022-09-28T03:50:29.417Z,41
2022-09-28T03:51:47.497Z,40
2022-09-28T03:53:04.452Z,40
2022-09-28T03:54:21.465Z,40
2022-09-28T03:55:38.436Z,40
2022-09-28T03:56:55.437Z,41
2022-09-28T03:58:12.473Z,41
2022-09-28T03:59:29.434Z,40
2022-09-28T04:00:46.553Z,39
2022-09-28T04:02:03.562Z,40
2022-09-28T04:03:21.055Z,40
2022-09-28T04:04:38.472Z,39
2022-09-28T04:05:55.465Z,39
2022-09-28T04:07:12.447Z,39
2022-09-28T04:08:29.474Z,39
2022-09-28T04:09:46.539Z,37
2022-09-28T04:11:03.470Z,39
2022-09-28T04:12:20.555Z,40
2022-09-28T04:13:37.498Z,40
2022-09-28T04:14:54.473Z,40
2022-09-28T04:16:11.496Z,39
2022-09-28T04:17:28.534Z,39
2022-09-28T04:18:45.466Z,40
2022-09-28T04:20:02.563Z,41
2022-09-28T04:21:19.524Z,42
2022-09-28T04:22:36.557Z,42
2022-09-28T04:23:53.470Z,43
2022-09-28T04:25:10.482Z,41
2022-09-28T04:26:27.493Z,40
2022-09-28T04:27:44.527Z,40
2022-09-28T04:29:05.624Z,39
2022-09-28T04:30:18.499Z,37
2022-09-28T04:31:35.526Z,36
2022-09-28T04:32:52.532Z,39
2022-09-28T04:34:09.511Z,40
2022-09-28T04:35:26.556Z,43
2022-09-28T04:36:43.545Z,48
2022-09-28T04:38:00.565Z,50
2022-09-28T04:39:17.627Z,51
2022-09-28T04:40:34.620Z,51
2022-09-28T04:41:51.614Z,51
2022-09-28T04:43:08.550Z,50
2022-09-28T04:44:25.507Z,50
2022-09-28T04:45:42.555Z,49
2022-09-28T04:47:02.946Z,48
2022-09-28T04:48:16.528Z,48
2022-09-28T04:49:33.565Z,46
2022-09-28T04:50:50.573Z,44
2022-09-28T04:52:07.570Z,44
2022-09-28T04:53:24.515Z,42
2022-09-28T04:54:41.562Z,42
2022-09-28T04:55:58.539Z,42
2022-09-28T04:57:15.533Z,42
2022-09-28T04:58:32.540Z,42
2022-09-28T04:59:49.602Z,42
2022-09-28T05:01:06.597Z,42
2022-09-28T05:02:23.614Z,44
2022-09-28T05:03:40.596Z,43
2022-09-28T05:04:57.544Z,41
2022-09-28T05:06:14.575Z,42
2022-09-28T05:07:31.538Z,40
2022-09-28T05:08:48.600Z,42
2022-09-28T05:10:05.632Z,43
2022-09-28T05:11:22.547Z,42
2022-09-28T05:12:39.557Z,43
2022-09-28T05:13:56.562Z,42
2022-09-28T05:15:13.606Z,40
2022-09-28T05:16:30.567Z,40
2022-09-28T05:17:47.555Z,39
2022-09-28T05:19:04.541Z,40
2022-09-28T05:20:21.676Z,39
2022-09-28T05:21:38.608Z,40
2022-09-28T05:22:55.572Z,37
2022-09-28T05:24:12.560Z,36
2022-09-28T05:25:29.580Z,69
2022-09-28T05:26:46.605Z,70
2022-09-28T05:28:03.599Z,63
2022-09-28T05:29:20.591Z,56
2022-09-28T05:30:37.618Z,50
2022-09-28T05:31:54.614Z,53
2022-09-28T05:33:11.632Z,52
2022-09-28T05:34:28.593Z,55
2022-09-28T05:35:47.912Z,56
2022-09-28T05:37:02.659Z,54
2022-09-28T05:38:19.627Z,52
2022-09-28T05:39:36.603Z,54
2022-09-28T05:40:53.715Z,52
2022-09-28T05:42:10.645Z,51
2022-09-28T05:43:27.605Z,52
2022-09-28T05:44:45.598Z,50
2022-09-28T05:46:02.838Z,50
2022-09-28T05:47:19.632Z,49
2022-09-28T05:48:36.612Z,47
2022-09-28T05:49:53.646Z,51
2022-09-28T05:51:10.642Z,55
2022-09-28T05:52:27.627Z,56
2022-09-28T05:53:44.606Z,56
2022-09-28T05:55:01.981Z,63
2022-09-28T05:56:18.643Z,57
2022-09-28T05:57:35.624Z,51
2022-09-28T05:58:52.623Z,49
2022-09-28T06:00:09.812Z,43
2022-09-28T06:01:26.717Z,46
2022-09-28T06:02:43.658Z,46
2022-09-28T06:04:00.694Z,44
2022-09-28T06:05:17.663Z,44
2022-09-28T06:06:34.714Z,43
2022-09-28T06:07:51.709Z,41
2022-09-28T06:09:08.661Z,40
2022-09-28T06:10:25.662Z,40
2022-09-28T06:11:42.629Z,40
2022-09-28T06:12:59.637Z,39
2022-09-28T06:14:16.806Z,37
2022-09-28T06:15:34.795Z,36
2022-09-28T06:16:51.718Z,35
2022-09-28T06:18:08.680Z,33
2022-09-28T06:19:25.644Z,32
2022-09-28T06:20:42.674Z,34
2022-09-28T06:21:59.698Z,37
2022-09-28T06:23:16.783Z,37
2022-09-28T06:24:33.647Z,39
2022-09-28T06:25:50.771Z,47
2022-09-28T06:27:07.654Z,47
2022-09-28T06:28:24.655Z,41
2022-09-28T06:29:41.702Z,42
2022-09-28T06:30:58.764Z,34
2022-09-28T06:32:15.725Z,26
2022-09-28T06:33:32.661Z,25
2022-09-28T06:34:52.818Z,24
2022-09-28T06:36:06.695Z,27
2022-09-28T06:37:23.703Z,31
2022-09-28T06:38:40.754Z,28
2022-09-28T06:39:57.724Z,21
2022-09-28T06:41:14.757Z,21
2022-09-28T06:42:31.699Z,26
2022-09-28T06:43:48.802Z,27
2022-09-28T06:45:06.585Z,26
2022-09-28T06:46:23.774Z,23
2022-09-28T06:47:40.707Z,19
2022-09-28T06:48:57.698Z,17
2022-09-28T06:50:14.825Z,18
2022-09-28T06:51:31.807Z,21
2022-09-28T06:52:48.716Z,23
2022-09-28T06:54:05.729Z,18
2022-09-28T06:55:22.713Z,14
2022-09-28T06:56:39.834Z,14
2022-09-28T06:57:56.899Z,12
2022-09-28T06:59:13.723Z,12
2022-09-28T07:00:30.745Z,10
2022-09-28T07:01:47.715Z,8
2022-09-28T07:03:04.763Z,9
2022-09-28T07:04:21.756Z,12
2022-09-28T07:05:39.495Z,14
2022-09-28T07:06:56.777Z,17
2022-09-28T07:08:13.749Z,13
2022-09-28T07:09:33.524Z,11
2022-09-28T07:10:47.806Z,18
2022-09-28T07:12:04.747Z,16
2022-09-28T07:13:45.961Z,13
2022-09-28T07:14:47.602Z,14
2022-09-28T07:15:56.817Z,16
2022-09-28T07:17:14.724Z,18
2022-09-28T07:18:30.962Z,23
2022-09-28T07:19:47.783Z,18
2022-09-28T07:21:04.845Z,8
2022-09-28T07:22:34.601Z,4
2022-09-28T07:23:48.281Z,5
2022-09-28T07:24:55.836Z,13
2022-09-28T07:26:12.794Z,10
2022-09-28T07:27:29.821Z,8
2022-09-28T07:28:46.906Z,5
2022-09-28T07:30:03.930Z,6
2022-09-28T07:31:21.036Z,5
2022-09-28T07:32:37.989Z,8
2022-09-28T07:33:54.858Z,9
2022-09-28T07:35:11.857Z,10
2022-09-28T07:36:28.766Z,10
2022-09-28T07:37:45.842Z,11
2022-09-28T07:39:02.821Z,9
2022-09-28T07:40:19.907Z,5
2022-09-28T07:41:36.811Z,4
2022-09-28T07:42:53.850Z,3
2022-09-28T07:44:10.900Z,1
2022-09-28T07:45:27.850Z,0
2022-09-28T07:46:44.815Z,3
2022-09-28T07:48:01.962Z,4
2022-09-28T07:49:18.977Z,5
2022-09-28T07:50:35.804Z,10
2022-09-28T07:51:52.804Z,11
2022-09-28T07:53:09.854Z,12
2022-09-28T07:54:26.997Z,9
2022-09-28T07:55:43.844Z,9
2022-09-28T07:57:00.822Z,9
2022-09-28T07:58:17.830Z,11
2022-09-28T07:59:34.996Z,10
2022-09-28T08:00:51.977Z,9
2022-09-28T08:02:08.897Z,9
2022-09-28T08:03:25.844Z,10
2022-09-28T08:04:42.811Z,10
2022-09-28T08:05:59.903Z,11
2022-09-28T08:07:19.457Z,11
2022-09-28T08:08:33.828Z,10
2022-09-28T08:09:50.862Z,6
2022-09-28T08:11:07.903Z,8
2022-09-28T08:12:24.860Z,9
2022-09-28T08:13:41.852Z,5
2022-09-28T08:14:58.860Z,2
2022-09-28T08:16:15.989Z,1
2022-09-28T08:17:32.841Z,2
2022-09-28T08:18:49.852Z,3
2022-09-28T08:20:07.035Z,0
2022-09-28T08:21:23.912Z,0
2022-09-28T08:22:40.896Z,1
2022-09-28T08:23:57.941Z,1
2022-09-28T08:25:15.052Z,0
2022-09-28T08:26:31.907Z,0
2022-09-28T08:27:48.899Z,0
2022-09-28T08:29:05.995Z,0
2022-09-28T08:30:23.107Z,1
2022-09-28T08:31:39.920Z,1
2022-09-28T08:32:57.024Z,4
2022-09-28T08:34:13.945Z,2
2022-09-28T08:35:30.912Z,0
2022-09-28T08:36:47.926Z,0
2022-09-28T08:38:04.999Z,3
2022-09-28T08:39:21.886Z,1
2022-09-28T08:40:38.924Z,0
2022-09-28T08:41:55.930Z,1
2022-09-28T08:43:12.907Z,3
2022-09-28T08:44:29.963Z,4
2022-09-28T08:45:47.112Z,6
2022-09-28T08:47:03.916Z,5
2022-09-28T08:48:20.909Z,4
2022-09-28T08:49:37.945Z,4
2022-09-28T08:50:54.940Z,2
2022-09-28T08:52:11.892Z,4
2022-09-28T08:53:28.951Z,5
2022-09-28T08:54:45.900Z,2
2022-09-28T08:56:03.639Z,3
2022-09-28T08:57:20.954Z,4
2022-09-28T08:58:37.928Z,8
2022-09-28T08:59:54.926Z,4
2022-09-28T09:01:12.019Z,4
2022-09-28T09:02:28.960Z,3
2022-09-28T09:03:45.920Z,2
2022-09-28T09:05:03.165Z,0
2022-09-28T09:06:19.922Z,0
2022-09-28T09:07:36.975Z,0
2022-09-28T09:08:53.936Z,1
2022-09-28T09:10:10.966Z,3
2022-09-28T09:11:27.927Z,5
2022-09-28T09:12:45.036Z,9
2022-09-28T09:14:02.056Z,10
2022-09-28T09:15:18.920Z,6
2022-09-28T09:16:35.983Z,4
2022-09-28T09:17:52.995Z,1
2022-09-28T09:19:09.978Z,0
2022-09-28T09:20:26.980Z,0
2022-09-28T09:21:43.945Z,0
2022-09-28T09:23:01.100Z,1
2022-09-28T09:24:18.068Z,0
2022-09-28T09:25:38.355Z,0
2022-09-28T09:26:52.124Z,0
2022-09-28T09:28:09.017Z,0
2022-09-28T09:29:26.092Z,0
2022-09-28T09:30:43.467Z,0
2022-09-28T09:31:59.967Z,0
2022-09-28T09:33:16.981Z,2
2022-09-28T09:34:34.008Z,4
2022-09-28T09:35:50.959Z,5
2022-09-28T09:37:08.041Z,4
2022-09-28T09:38:24.942Z,6
2022-09-28T09:39:42.017Z,8
2022-09-28T09:40:59.057Z,5
2022-09-28T09:42:15.988Z,2
2022-09-28T09:43:33.055Z,2
2022-09-28T09:44:49.972Z,0
2022-09-28T09:46:07.165Z,0
2022-09-28T09:47:24.039Z,0
2022-09-28T09:48:40.977Z,0
2022-09-28T09:49:58.214Z,0
2022-09-28T09:51:15.136Z,0
2022-09-28T09:53:48.978Z,1
2022-09-28T09:55:06.026Z,0
2022-09-28T09:56:24.100Z,0
2022-09-28T09:57:41.061Z,1
2022-09-28T09:58:58.083Z,0
2022-09-28T10:00:15.102Z,0
2022-09-28T10:01:32.088Z,0
2022-09-28T10:02:49.101Z,0
2022-09-28T10:04:06.094Z,1
2022-09-28T10:05:23.099Z,0
2022-09-28T10:06:40.002Z,1
2022-09-28T10:07:57.005Z,2
2022-09-28T10:09:14.246Z,3
2022-09-28T10:10:31.110Z,3
2022-09-28T10:11:48.019Z,4
2022-09-28T10:13:05.019Z,4
2022-09-28T10:14:22.086Z,4
2022-09-28T10:15:39.132Z,5
2022-09-28T10:16:56.119Z,4
2022-09-28T10:18:13.074Z,6
2022-09-28T10:19:30.035Z,5
2022-09-28T10:20:47.060Z,4
2022-09-28T10:22:04.085Z,3
2022-09-28T10:23:21.514Z,2
2022-09-28T10:24:39.221Z,4
2022-09-28T10:25:56.118Z,9
2022-09-28T10:27:13.045Z,4
2022-09-28T10:28:30.056Z,5
2022-09-28T10:29:47.053Z,4
2022-09-28T10:31:04.306Z,3
2022-09-28T10:32:21.123Z,3
2022-09-28T10:33:38.045Z,3
2022-09-28T10:34:55.035Z,2
2022-09-28T10:36:12.119Z,2
2022-09-28T10:37:29.194Z,5
2022-09-28T10:38:46.115Z,2
2022-09-28T10:40:03.266Z,2
2022-09-28T10:41:20.094Z,1
2022-09-28T10:42:37.078Z,1
2022-09-28T10:43:57.995Z,2
2022-09-28T10:45:11.205Z,9
2022-09-28T10:46:28.238Z,5
2022-09-28T10:47:45.100Z,2
2022-09-28T10:49:02.358Z,4
2022-09-28T10:50:19.660Z,5
2022-09-28T10:51:37.080Z,8
2022-09-28T10:52:54.170Z,4
2022-09-28T10:54:11.267Z,2
2022-09-28T10:55:28.129Z,3
2022-09-28T10:56:45.161Z,2
2022-09-28T10:58:02.211Z,4
2022-09-28T10:59:19.166Z,3
2022-09-28T11:00:36.111Z,8
2022-09-28T11:01:53.124Z,10
2022-09-28T11:03:10.114Z,1
2022-09-28T11:04:27.140Z,13
2022-09-28T11:05:44.134Z,11
2022-09-28T11:07:01.200Z,18
2022-09-28T11:08:18.187Z,6
2022-09-28T11:09:35.150Z,4
2022-09-28T11:10:52.119Z,1
2022-09-28T11:12:09.151Z,2
2022-09-28T11:13:25.992Z,2
2022-09-28T11:14:43.087Z,3
2022-09-28T11:16:00.025Z,6
2022-09-28T11:17:17.061Z,9
2022-09-28T11:18:34.058Z,6
2022-09-28T11:19:51.119Z,10
2022-09-28T11:21:10.546Z,11
2022-09-28T11:22:25.095Z,20
2022-09-28T11:23:42.046Z,15
2022-09-28T11:24:59.033Z,24
2022-09-28T11:26:18.540Z,25
2022-09-28T11:27:33.230Z,27
2022-09-28T11:28:50.042Z,26
2022-09-28T11:30:07.178Z,31
2022-09-28T11:31:24.100Z,46
2022-09-28T11:32:41.181Z,37
2022-09-28T11:33:58.093Z,25
2022-09-28T11:35:15.057Z,19
2022-09-28T11:36:32.060Z,19
2022-09-28T11:37:49.152Z,18
2022-09-28T11:39:06.101Z,18
2022-09-28T11:40:23.078Z,18
2022-09-28T11:41:40.053Z,28
2022-09-28T11:42:57.168Z,26
2022-09-28T11:44:14.083Z,24
2022-09-28T11:45:31.040Z,21
2022-09-28T11:46:48.074Z,21
2022-09-28T11:48:05.104Z,21
2022-09-28T11:49:22.078Z,23
2022-09-28T11:50:39.103Z,23
2022-09-28T11:51:56.092Z,18
2022-09-28T11:53:13.104Z,29
2022-09-28T11:54:30.074Z,21
2022-09-28T11:55:47.087Z,20
2022-09-28T11:57:04.231Z,19
2022-09-28T11:58:21.158Z,19
2022-09-28T11:59:38.106Z,19
2022-09-28T12:00:55.087Z,19
2022-09-28T12:02:12.274Z,19
2022-09-28T12:03:29.198Z,18
2022-09-28T12:04:46.082Z,18
2022-09-28T12:06:03.709Z,17
2022-09-28T12:07:21.120Z,18
2022-09-28T12:08:38.178Z,23
2022-09-28T12:09:55.101Z,25
2022-09-28T12:11:12.140Z,27
2022-09-28T12:12:29.090Z,25
2022-09-28T12:13:46.118Z,21
2022-09-28T12:15:03.246Z,24
2022-09-28T12:17:37.244Z,21
2022-09-28T12:18:54.130Z,21
2022-09-28T12:20:11.279Z,23
2022-09-28T12:21:28.100Z,24
2022-09-28T12:22:45.100Z,49
2022-09-28T12:24:02.144Z,69
2022-09-28T12:25:19.187Z,69
2022-09-28T12:26:37.864Z,73
2022-09-28T12:27:53.198Z,67
2022-09-28T12:29:10.116Z,72
2022-09-28T12:30:27.157Z,86
2022-09-28T12:31:44.139Z,43
2022-09-28T12:33:01.279Z,35
2022-09-28T12:34:18.138Z,37
2022-09-28T12:35:35.304Z,42
2022-09-28T12:36:52.171Z,35
2022-09-28T12:38:09.156Z,32
2022-09-28T12:39:35.970Z,28
2022-09-28T12:40:44.305Z,29
2022-09-28T12:42:01.967Z,32
2022-09-28T12:43:19.193Z,34
2022-09-28T12:44:36.275Z,29
2022-09-28T12:46:10.770Z,27
2022-09-28T12:47:10.213Z,27
2022-09-28T12:48:27.245Z,27
2022-09-28T12:51:01.526Z,31
2022-09-28T12:52:18.156Z,37
2022-09-28T12:53:35.227Z,-1
2022-09-28T12:54:52.208Z,48
2022-09-28T12:56:09.203Z,35
2022-09-28T12:57:26.188Z,26
2022-09-28T12:58:43.212Z,27
2022-09-28T13:00:00.279Z,27
2022-09-28T13:01:17.440Z,27
2022-09-28T13:02:34.375Z,32
2022-09-28T13:03:51.355Z,33
2022-09-28T13:05:08.348Z,46
2022-09-28T13:06:25.256Z,44
2022-09-28T13:07:42.285Z,44
2022-09-28T13:08:59.338Z,47
2022-09-28T13:10:16.268Z,44
2022-09-28T13:11:33.334Z,47
2022-09-28T13:12:50.274Z,34
2022-09-28T13:14:07.309Z,29
2022-09-28T13:15:24.338Z,37
2022-09-28T13:16:41.328Z,42
2022-09-28T13:17:58.333Z,34
2022-09-28T13:19:15.422Z,34
2022-09-28T13:20:32.412Z,32
2022-09-28T13:21:49.306Z,33
2022-09-28T13:23:06.360Z,34
2022-09-28T13:24:31.994Z,32
2022-09-28T13:25:40.303Z,29
2022-09-28T13:26:57.769Z,33
2022-09-28T13:28:14.346Z,34
2022-09-28T13:29:31.417Z,35
2022-09-28T13:30:48.778Z,34
2022-09-28T13:32:05.331Z,34
2022-09-28T13:33:22.376Z,35
2022-09-28T13:34:39.345Z,35
2022-09-28T13:35:56.565Z,33
2022-09-28T13:37:13.356Z,29
2022-09-28T13:38:30.347Z,31
2022-09-28T13:39:47.662Z,32
2022-09-28T13:41:04.897Z,43
2022-09-28T13:42:21.407Z,41
2022-09-28T13:43:38.336Z,42
2022-09-28T13:44:55.683Z,40
2022-09-28T13:46:13.718Z,42
2022-09-28T13:47:30.355Z,36
2022-09-28T13:48:47.550Z,36
2022-09-28T13:54:16.083Z,26
2022-09-28T13:55:33.401Z,25
2022-09-28T13:56:50.354Z,27
2022-09-28T13:58:07.366Z,-1
2022-09-28T13:59:24.373Z,40
2022-09-28T14:00:41.404Z,31
2022-09-28T14:02:00.691Z,28
2022-09-28T14:03:15.390Z,31
2022-09-28T14:04:32.387Z,33
2022-09-28T14:05:49.355Z,35
2022-09-28T14:07:06.414Z,33
2022-09-28T14:08:23.393Z,31
2022-09-28T14:09:40.408Z,29
2022-09-28T14:10:57.400Z,32
2022-09-28T14:12:14.364Z,36
2022-09-28T14:13:31.387Z,34
2022-09-28T14:14:48.432Z,34
2022-09-28T14:16:05.400Z,33
2022-09-28T14:17:22.383Z,32
2022-09-28T14:18:39.581Z,31
2022-09-28T14:19:56.403Z,35
2022-09-28T14:21:13.385Z,40
2022-09-28T14:22:30.385Z,37
2022-09-28T14:23:47.588Z,54
2022-09-28T14:25:04.461Z,50
2022-09-28T14:26:21.416Z,42
2022-09-28T14:27:38.392Z,42
2022-09-28T14:28:55.582Z,70
2022-09-28T14:30:12.452Z,46
2022-09-28T14:31:29.492Z,39
2022-09-28T14:32:46.418Z,36
2022-09-28T14:34:03.487Z,35
2022-09-28T14:35:20.406Z,40
2022-09-28T14:36:37.469Z,41
2022-09-28T14:37:54.426Z,44
2022-09-28T14:39:11.538Z,42
2022-09-28T14:40:28.527Z,48
2022-09-28T14:41:45.414Z,54
2022-09-28T14:43:02.484Z,57
2022-09-28T14:44:19.541Z,57
2022-09-28T14:45:36.455Z,54
2022-09-28T14:46:53.406Z,49
2022-09-28T14:48:10.415Z,47
2022-09-28T14:49:27.423Z,47
2022-09-28T14:50:44.460Z,48
2022-09-28T14:52:01.432Z,56
2022-09-28T14:53:18.445Z,56
2022-09-28T14:54:35.527Z,54
2022-09-28T14:55:52.515Z,49
2022-09-28T14:57:09.447Z,48
2022-09-28T14:58:26.428Z,50
2022-09-28T14:59:43.469Z,57
2022-09-28T15:01:00.483Z,59
2022-09-28T15:02:17.466Z,60
2022-09-28T15:03:34.488Z,62
2022-09-28T15:04:51.738Z,62
2022-09-28T15:06:08.495Z,63
2022-09-28T15:07:25.454Z,63
2022-09-28T15:08:42.488Z,60
2022-09-28T15:09:59.454Z,59
2022-09-28T15:11:16.505Z,64
2022-09-28T15:12:33.477Z,54
2022-09-28T15:13:50.464Z,51
2022-09-28T15:15:07.738Z,52
2022-09-28T15:16:24.517Z,52
2022-09-28T15:17:41.508Z,55
2022-09-28T15:18:58.470Z,55
2022-09-28T15:20:15.512Z,56
2022-09-28T15:21:32.515Z,52
2022-09-28T15:22:49.517Z,54
2022-09-28T15:24:06.477Z,55
2022-09-28T15:25:23.579Z,55
2022-09-28T15:26:40.768Z,57
2022-09-28T15:27:57.476Z,70
2022-09-28T15:29:14.485Z,89
2022-09-28T15:30:31.485Z,74
2022-09-28T15:31:52.285Z,86
2022-09-28T15:33:05.479Z,80
2022-09-28T15:34:22.505Z,79
2022-09-28T15:35:40.064Z,67
2022-09-28T15:36:57.551Z,56
2022-09-28T15:38:14.483Z,55
2022-09-28T15:39:31.554Z,70
2022-09-28T15:40:48.570Z,52
2022-09-28T15:42:05.580Z,56
2022-09-28T15:43:22.553Z,64
2022-09-28T15:44:39.540Z,54
2022-09-28T15:45:56.537Z,58
2022-09-28T15:47:13.521Z,52
2022-09-28T15:48:30.517Z,56
2022-09-28T15:49:47.555Z,57
2022-09-28T15:51:04.510Z,58
2022-09-28T15:52:21.523Z,52
2022-09-28T15:53:38.495Z,55
2022-09-28T15:54:55.622Z,44
2022-09-28T15:56:12.650Z,58
2022-09-28T15:57:29.539Z,57
2022-09-28T15:58:46.538Z,87
2022-09-28T16:00:03.756Z,63
2022-09-28T16:01:20.641Z,54
2022-09-28T16:02:37.659Z,70
2022-09-28T16:03:54.546Z,83
2022-09-28T16:05:11.557Z,62
2022-09-28T16:06:28.524Z,65
2022-09-28T16:07:45.602Z,65
2022-09-28T16:09:02.645Z,50
2022-09-28T16:10:19.606Z,51
2022-09-28T16:11:36.545Z,55
2022-09-28T16:12:53.611Z,67
2022-09-28T16:14:10.551Z,54
2022-09-28T16:15:27.581Z,62
2022-09-28T16:16:46.598Z,62
2022-09-28T16:18:01.570Z,56
2022-09-28T16:19:18.680Z,49
2022-09-28T16:20:35.624Z,64
2022-09-28T16:21:52.583Z,57
2022-09-28T16:23:09.580Z,57
2022-09-28T16:24:26.562Z,58
2022-09-28T16:25:43.576Z,72
2022-09-28T16:27:00.583Z,51
2022-09-28T16:28:17.622Z,55
2022-09-28T16:29:34.569Z,60
2022-09-28T16:30:51.628Z,59
2022-09-28T16:32:08.621Z,64
2022-09-28T16:33:25.569Z,81
2022-09-28T16:34:42.583Z,70
2022-09-28T16:35:59.628Z,74
2022-09-28T16:37:16.590Z,92
2022-09-28T16:38:33.583Z,71
2022-09-28T16:39:50.610Z,74
2022-09-28T16:41:07.712Z,82
2022-09-28T16:42:24.616Z,76
2022-09-28T16:43:41.659Z,93
2022-09-28T16:44:58.609Z,87
2022-09-28T16:46:15.656Z,77
2022-09-28T16:47:32.611Z,86
2022-09-28T16:48:49.661Z,98
2022-09-28T16:50:06.795Z,89
2022-09-28T16:51:23.643Z,73
2022-09-28T16:52:40.667Z,66
2022-09-28T16:53:57.667Z,62
2022-09-28T16:55:36.120Z,60
2022-09-28T16:56:31.679Z,70
2022-09-28T16:57:48.622Z,65
2022-09-28T16:59:05.735Z,63
2022-09-28T17:00:22.700Z,50
2022-09-28T17:01:39.667Z,58
2022-09-28T17:02:56.677Z,71
2022-09-28T17:04:13.745Z,70
2022-09-28T17:05:30.673Z,74
2022-09-28T17:06:47.712Z,74
2022-09-28T17:08:04.666Z,101
2022-09-28T17:09:21.717Z,101
2022-09-28T17:10:55.983Z,92
2022-09-28T17:11:55.668Z,89
2022-09-28T17:13:12.742Z,74
2022-09-28T17:14:29.747Z,82
2022-09-28T17:15:46.692Z,77
2022-09-28T17:17:08.852Z,67
2022-09-28T17:18:20.646Z,74
2022-09-28T17:19:37.678Z,64
2022-09-28T17:20:54.657Z,58
2022-09-28T17:22:11.772Z,54
2022-09-28T17:23:28.693Z,54
2022-09-28T17:24:45.700Z,54
2022-09-28T17:26:02.782Z,57
2022-09-28T17:27:20.121Z,62
2022-09-28T17:28:36.699Z,62
2022-09-28T17:29:53.743Z,56
2022-09-28T17:31:10.745Z,60
2022-09-28T17:32:27.744Z,69
2022-09-28T17:33:44.690Z,57
2022-09-28T17:35:22.885Z,62
2022-09-28T17:36:18.705Z,65
2022-09-28T17:37:35.731Z,71
2022-09-28T17:38:52.756Z,78
2022-09-28T17:40:09.830Z,72
2022-09-28T17:41:26.682Z,73
2022-09-28T17:42:43.737Z,67
2022-09-28T17:44:00.698Z,59
2022-09-28T17:45:17.710Z,57
2022-09-28T17:46:34.846Z,55
2022-09-28T17:47:51.755Z,55
2022-09-28T17:49:08.730Z,57
2022-09-28T17:50:25.780Z,55
2022-09-28T17:51:42.717Z,54
2022-09-28T17:52:59.759Z,55
2022-09-28T17:54:16.722Z,55
2022-09-28T17:55:33.763Z,54
2022-09-28T17:56:50.744Z,57
2022-09-28T17:58:07.776Z,56
2022-09-28T17:59:24.828Z,54
2022-09-28T18:00:42.182Z,55
2022-09-28T18:02:02.104Z,55
2022-09-28T18:03:15.708Z,54
2022-09-28T18:04:51.093Z,55
2022-09-28T18:05:49.730Z,58
2022-09-28T18:07:06.737Z,63
2022-09-28T18:08:23.766Z,64
2022-09-28T18:09:40.775Z,66
2022-09-28T18:10:57.796Z,67
2022-09-28T18:12:14.931Z,86
2022-09-28T18:13:31.763Z,80
2022-09-28T18:14:48.763Z,80
2022-09-28T18:16:05.866Z,60
2022-09-28T18:17:22.729Z,58
2022-09-28T18:18:39.783Z,50
2022-09-28T18:19:56.904Z,47
2022-09-28T18:21:13.741Z,47
2022-09-28T18:22:30.744Z,48
2022-09-28T18:23:47.810Z,48
2022-09-28T18:25:05.016Z,48
2022-09-28T18:26:21.729Z,49
2022-09-28T18:27:38.829Z,52
2022-09-28T18:28:55.792Z,60
2022-09-28T18:30:12.800Z,59
2022-09-28T18:31:29.996Z,59
2022-09-28T18:32:46.752Z,60
2022-09-28T18:34:03.793Z,62